Time,TemperatureF,DewpointF,PressureIn,WindDirection,WindDirectionDegrees,WindSpeedMPH,WindSpeedGustMPH,Humidity,HourlyPrecipIn,Conditions,Clouds,dailyrainin,SoftwareType,DateUTC
2013-09-21 00:09:00,67.8,59.6,29.90,ESE,112,3.7,-999.0,75,-99.99,,,0.00,Acu-Link.com,2013-09-21 06:09:00,
2013-09-21 00:24:00,67.5,59.7,29.90,SSE,157,3.7,-999.0,76,-99.99,,,0.00,Acu-Link.com,2013-09-21 06:24:00,
2013-09-21 00:39:00,67.1,59.6,29.91,SSE,157,2.2,-999.0,77,-99.99,,,0.00,Acu-Link.com,2013-09-21 06:39:00,
2013-09-21 00:54:00,66.7,59.6,29.90,ESE,112,4.2,-999.0,78,-99.99,,,0.00,Acu-Link.com,2013-09-21 06:54:00,
2013-09-21 01:09:00,66.4,59.7,29.90,ESE,112,6.3,-999.0,79,-99.99,,,0.00,Acu-Link.com,2013-09-21 07:09:00,
2013-09-21 01:24:00,66.0,59.6,29.89,ESE,112,4.2,-999.0,80,-99.99,,,0.00,Acu-Link.com,2013-09-21 07:24:00,
2013-09-21 01:39:00,65.8,59.5,29.89,East,90,6.8,-999.0,80,-99.99,,,0.00,Acu-Link.com,2013-09-21 07:39:00,
2013-09-21 01:54:00,65.5,59.5,29.90,SE,135,4.2,-999.0,81,-99.99,,,0.00,Acu-Link.com,2013-09-21 07:54:00,
2013-09-21 02:12:00,65.3,59.3,29.89,ESE,112,4.2,-999.0,81,-99.99,,,0.00,Acu-Link.com,2013-09-21 08:12:00,
2013-09-21 02:28:00,65.3,59.3,29.89,East,90,2.7,-999.0,81,-99.99,,,0.00,Acu-Link.com,2013-09-21 08:28:00,
2013-09-21 02:43:00,65.1,59.1,29.89,ESE,112,3.7,-999.0,81,-99.99,,,0.00,Acu-Link.com,2013-09-21 08:43:00,
2013-09-21 02:58:00,64.8,59.2,29.89,SE,135,0.0,-999.0,82,-99.99,,,0.00,Acu-Link.com,2013-09-21 08:58:00,
2013-09-21 03:13:00,64.6,59.0,29.88,ESE,112,3.2,-999.0,82,-99.99,,,0.00,Acu-Link.com,2013-09-21 09:13:00,
2013-09-21 03:28:00,64.4,59.1,29.89,ESE,112,2.7,-999.0,83,-99.99,,,0.00,Acu-Link.com,2013-09-21 09:28:00,
2013-09-21 03:43:00,64.0,58.7,29.88,ESE,112,5.8,-999.0,83,-99.99,,,0.00,Acu-Link.com,2013-09-21 09:43:00,
2013-09-21 03:58:00,63.7,58.4,29.89,ESE,112,2.7,-999.0,83,-99.99,,,0.00,Acu-Link.com,2013-09-21 09:58:00,
2013-09-21 04:14:00,63.5,58.2,29.89,ESE,112,1.7,-999.0,83,-99.99,,,0.00,Acu-Link.com,2013-09-21 10:14:00,
2013-09-21 04:29:00,63.7,58.4,29.89,ESE,112,4.2,-999.0,83,-99.99,,,0.00,Acu-Link.com,2013-09-21 10:29:00,
2013-09-21 04:44:00,63.7,58.1,29.89,South,180,3.7,-999.0,82,-99.99,,,0.00,Acu-Link.com,2013-09-21 10:44:00,
2013-09-21 04:59:00,63.5,57.9,29.89,SSE,157,0.0,-999.0,82,-99.99,,,0.00,Acu-Link.com,2013-09-21 10:59:00,
2013-09-21 05:15:00,63.7,57.8,29.89,ESE,112,5.8,-999.0,81,-99.99,,,0.00,Acu-Link.com,2013-09-21 11:15:00,
2013-09-21 05:30:00,63.7,57.4,29.90,East,90,5.8,-999.0,80,-99.99,,,0.00,Acu-Link.com,2013-09-21 11:30:00,
2013-09-21 05:45:00,63.3,57.0,29.90,ESE,112,5.3,-999.0,80,-99.99,,,0.00,Acu-Link.com,2013-09-21 11:45:00,
2013-09-21 06:00:00,63.0,57.1,29.91,ESE,112,6.3,-999.0,81,-99.99,,,0.00,Acu-Link.com,2013-09-21 12:00:00,
2013-09-21 06:15:00,62.8,56.9,29.92,ESE,112,3.2,-999.0,81,-99.99,,,0.00,Acu-Link.com,2013-09-21 12:15:00,
2013-09-21 06:30:00,62.4,56.5,29.92,ESE,112,4.2,-999.0,81,-99.99,,,0.00,Acu-Link.com,2013-09-21 12:30:00,
2013-09-21 06:46:00,62.4,56.8,29.92,SE,135,3.7,-999.0,82,-99.99,,,0.00,Acu-Link.com,2013-09-21 12:46:00,
2013-09-21 07:01:00,62.4,56.5,29.92,ESE,112,4.2,-999.0,81,-99.99,,,0.00,Acu-Link.com,2013-09-21 13:01:00,
2013-09-21 07:16:00,63.5,56.5,29.93,SSE,157,5.3,-999.0,78,-99.99,,,0.00,Acu-Link.com,2013-09-21 13:16:00,
2013-09-21 07:31:00,65.3,57.2,29.93,ESE,112,5.3,-999.0,75,-99.99,,,0.00,Acu-Link.com,2013-09-21 13:31:00,
2013-09-21 07:46:00,66.9,57.2,29.93,SSE,157,6.8,-999.0,71,-99.99,,,0.00,Acu-Link.com,2013-09-21 13:46:00,
2013-09-21 08:01:00,67.3,56.8,29.94,South,180,6.3,-999.0,69,-99.99,,,0.00,Acu-Link.com,2013-09-21 14:01:00,
2013-09-21 08:16:00,68.2,57.2,29.94,ESE,112,8.9,-999.0,68,-99.99,,,0.00,Acu-Link.com,2013-09-21 14:16:00,
2013-09-21 08:32:00,68.9,57.1,29.95,ESE,112,8.3,-999.0,66,-99.99,,,0.00,Acu-Link.com,2013-09-21 14:32:00,
2013-09-21 08:47:00,68.0,56.2,29.95,SSE,157,9.4,-999.0,66,-99.99,,,0.00,Acu-Link.com,2013-09-21 14:47:00,
2013-09-21 09:02:00,68.5,56.3,29.95,ESE,112,6.8,-999.0,65,-99.99,,,0.00,Acu-Link.com,2013-09-21 15:02:00,
2013-09-21 09:17:00,68.5,56.3,29.95,ESE,112,7.8,-999.0,65,-99.99,,,0.00,Acu-Link.com,2013-09-21 15:17:00,
2013-09-21 09:32:00,69.3,56.2,29.95,ESE,112,9.9,-999.0,63,-99.99,,,0.00,Acu-Link.com,2013-09-21 15:32:00,
2013-09-21 09:47:00,70.3,56.2,29.95,SE,135,8.9,-999.0,61,-99.99,,,0.00,Acu-Link.com,2013-09-21 15:47:00,
2013-09-21 10:03:00,70.3,56.2,29.95,East,90,8.3,-999.0,61,-99.99,,,0.00,Acu-Link.com,2013-09-21 16:03:00,
2013-09-21 10:18:00,70.0,56.4,29.95,SSE,157,9.9,-999.0,62,-99.99,,,0.00,Acu-Link.com,2013-09-21 16:18:00,
2013-09-21 10:33:00,71.6,57.0,29.94,SSE,157,5.3,-999.0,60,-99.99,,,0.00,Acu-Link.com,2013-09-21 16:33:00,
2013-09-21 10:48:00,72.9,56.3,29.95,SE,135,6.8,-999.0,56,-99.99,,,0.00,Acu-Link.com,2013-09-21 16:48:00,
2013-09-21 11:03:00,73.0,56.4,29.95,SSE,157,13.5,-999.0,56,-99.99,,,0.00,Acu-Link.com,2013-09-21 17:03:00,
2013-09-21 11:18:00,74.1,56.4,29.94,ESE,112,11.4,-999.0,54,-99.99,,,0.00,Acu-Link.com,2013-09-21 17:18:00,
2013-09-21 11:33:00,74.7,56.4,29.93,SSE,157,6.8,-999.0,53,-99.99,,,0.00,Acu-Link.com,2013-09-21 17:33:00,
2013-09-21 11:48:00,75.2,56.3,29.93,SE,135,6.3,-999.0,52,-99.99,,,0.00,Acu-Link.com,2013-09-21 17:48:00,
2013-09-21 12:03:00,75.6,56.2,29.92,ESE,112,10.9,-999.0,51,-99.99,,,0.00,Acu-Link.com,2013-09-21 18:03:00,
2013-09-21 12:18:00,76.1,56.6,29.92,SE,135,10.9,-999.0,51,-99.99,,,0.00,Acu-Link.com,2013-09-21 18:18:00,
2013-09-21 12:33:00,75.9,55.9,29.90,SSE,157,5.3,-999.0,50,-99.99,,,0.00,Acu-Link.com,2013-09-21 18:33:00,
2013-09-21 12:48:00,77.0,55.8,29.90,ESE,112,6.3,-999.0,48,-99.99,,,0.00,Acu-Link.com,2013-09-21 18:48:00,
2013-09-21 13:03:00,76.8,56.2,29.89,SE,135,5.8,-999.0,49,-99.99,,,0.00,Acu-Link.com,2013-09-21 19:03:00,
2013-09-21 13:18:00,77.0,55.2,29.88,SSE,157,10.4,-999.0,47,-99.99,,,0.00,Acu-Link.com,2013-09-21 19:18:00,
2013-09-21 13:34:00,77.5,54.5,29.87,SSE,157,8.9,-999.0,45,-99.99,,,0.00,Acu-Link.com,2013-09-21 19:34:00,
2013-09-21 13:49:00,78.4,55.3,29.85,SE,135,10.4,-999.0,45,-99.99,,,0.00,Acu-Link.com,2013-09-21 19:49:00,
2013-09-21 14:04:00,78.8,55.0,29.85,SSE,157,7.3,-999.0,44,-99.99,,,0.00,Acu-Link.com,2013-09-21 20:04:00,
2013-09-21 14:19:00,78.6,54.8,29.84,East,90,4.2,-999.0,44,-99.99,,,0.00,Acu-Link.com,2013-09-21 20:19:00,
2013-09-21 14:34:00,79.0,55.2,29.83,SSE,157,8.3,-999.0,44,-99.99,,,0.00,Acu-Link.com,2013-09-21 20:34:00,
2013-09-21 14:49:00,79.3,54.8,29.84,ESE,112,4.7,-999.0,43,-99.99,,,0.00,Acu-Link.com,2013-09-21 20:49:00,
2013-09-21 15:04:00,79.9,54.7,29.81,SE,135,3.2,-999.0,42,-99.99,,,0.00,Acu-Link.com,2013-09-21 21:04:00,
2013-09-21 15:20:00,80.4,53.8,29.84,SSE,157,9.4,-999.0,40,-99.99,,,0.00,Acu-Link.com,2013-09-21 21:20:00,
2013-09-21 15:35:00,79.7,53.2,29.82,South,180,4.7,-999.0,40,-99.99,,,0.00,Acu-Link.com,2013-09-21 21:35:00,
2013-09-21 15:50:00,80.2,53.0,29.81,SE,135,11.4,-999.0,39,-99.99,,,0.00,Acu-Link.com,2013-09-21 21:50:00,
2013-09-21 16:05:00,79.5,52.4,29.80,SE,135,6.8,-999.0,39,-99.99,,,0.00,Acu-Link.com,2013-09-21 22:05:00,
2013-09-21 16:20:00,80.4,53.2,29.80,South,180,5.8,-999.0,39,-99.99,,,0.00,Acu-Link.com,2013-09-21 22:20:00,
2013-09-21 16:36:00,80.4,53.2,29.80,SE,135,6.8,-999.0,39,-99.99,,,0.00,Acu-Link.com,2013-09-21 22:36:00,
2013-09-21 16:51:00,80.2,53.0,29.79,ESE,112,7.3,-999.0,39,-99.99,,,0.00,Acu-Link.com,2013-09-21 22:51:00,
2013-09-21 17:06:00,80.2,53.7,29.79,ESE,112,0.0,-999.0,40,-99.99,,,0.00,Acu-Link.com,2013-09-21 23:06:00,
2013-09-21 17:22:00,80.8,53.5,29.79,East,90,4.2,-999.0,39,-99.99,,,0.00,Acu-Link.com,2013-09-21 23:22:00,
2013-09-21 17:37:00,82.0,53.9,29.79,ESE,112,4.7,-999.0,38,-99.99,,,0.00,Acu-Link.com,2013-09-21 23:37:00,
2013-09-21 17:52:00,81.5,53.4,29.78,West,270,1.7,-999.0,38,-99.99,,,0.00,Acu-Link.com,2013-09-21 23:52:00,
2013-09-21 18:07:00,81.7,52.9,29.79,SSE,157,3.7,-999.0,37,-99.99,,,0.00,Acu-Link.com,2013-09-22 00:07:00,
2013-09-21 18:23:00,79.3,52.2,29.78,SSE,157,4.7,-999.0,39,-99.99,,,0.00,Acu-Link.com,2013-09-22 00:23:00,
2013-09-21 18:38:00,80.4,52.4,29.78,ENE,67,4.2,-999.0,38,-99.99,,,0.00,Acu-Link.com,2013-09-22 00:38:00,
2013-09-21 18:53:00,77.9,52.3,29.77,East,90,3.7,-999.0,41,-99.99,,,0.00,Acu-Link.com,2013-09-22 00:53:00,
2013-09-21 19:08:00,76.3,52.1,29.77,ESE,112,3.2,-999.0,43,-99.99,,,0.00,Acu-Link.com,2013-09-22 01:08:00,
2013-09-21 19:23:00,75.4,52.0,29.78,East,90,3.7,-999.0,44,-99.99,,,0.00,Acu-Link.com,2013-09-22 01:23:00,
2013-09-21 19:38:00,75.0,51.6,29.77,East,90,1.1,-999.0,44,-99.99,,,0.00,Acu-Link.com,2013-09-22 01:38:00,
2013-09-21 19:53:00,74.3,51.6,29.77,East,90,4.2,-999.0,45,-99.99,,,0.00,Acu-Link.com,2013-09-22 01:53:00,
2013-09-21 20:08:00,73.9,51.8,29.78,ESE,112,2.7,-999.0,46,-99.99,,,0.00,Acu-Link.com,2013-09-22 02:08:00,
2013-09-21 20:24:00,73.6,52.7,29.78,ESE,112,2.7,-999.0,48,-99.99,,,0.00,Acu-Link.com,2013-09-22 02:24:00,
2013-09-21 20:39:00,73.2,52.3,29.78,ESE,112,3.2,-999.0,48,-99.99,,,0.00,Acu-Link.com,2013-09-22 02:39:00,
2013-09-21 20:54:00,73.0,52.1,29.79,ESE,112,3.2,-999.0,48,-99.99,,,0.00,Acu-Link.com,2013-09-22 02:54:00,
2013-09-21 21:09:00,72.9,52.0,29.78,ESE,112,2.2,-999.0,48,-99.99,,,0.00,Acu-Link.com,2013-09-22 03:09:00,
2013-09-21 21:24:00,72.9,52.0,29.77,ESE,112,2.7,-999.0,48,-99.99,,,0.00,Acu-Link.com,2013-09-22 03:24:00,
2013-09-21 21:40:00,73.0,51.6,29.78,SE,135,4.2,-999.0,47,-99.99,,,0.00,Acu-Link.com,2013-09-22 03:40:00,
2013-09-21 21:55:00,72.7,52.4,29.78,ESE,112,5.3,-999.0,49,-99.99,,,0.00,Acu-Link.com,2013-09-22 03:55:00,
2013-09-21 22:10:00,71.6,53.6,29.79,ESE,112,6.8,-999.0,53,-99.99,,,0.00,Acu-Link.com,2013-09-22 04:10:00,
2013-09-21 22:25:00,70.9,53.9,29.79,ESE,112,5.3,-999.0,55,-99.99,,,0.00,Acu-Link.com,2013-09-22 04:25:00,
2013-09-21 22:40:00,70.3,53.9,29.79,ESE,112,4.2,-999.0,56,-99.99,,,0.00,Acu-Link.com,2013-09-22 04:40:00,
2013-09-21 22:55:00,69.8,53.4,29.78,ESE,112,3.2,-999.0,56,-99.99,,,0.00,Acu-Link.com,2013-09-22 04:55:00,
2013-09-21 23:10:00,69.4,54.0,29.78,SE,135,1.7,-999.0,58,-99.99,,,0.00,Acu-Link.com,2013-09-22 05:10:00,
2013-09-21 23:25:00,68.7,53.8,29.78,East,90,3.2,-999.0,59,-99.99,,,0.00,Acu-Link.com,2013-09-22 05:25:00,
2013-09-21 23:41:00,68.0,54.0,29.78,SE,135,1.1,-999.0,61,-99.99,,,0.00,Acu-Link.com,2013-09-22 05:41:00,
2013-09-21 23:56:00,67.8,53.9,29.78,ESE,112,3.7,-999.0,61,-99.99,,,0.00,Acu-Link.com,2013-09-22 05:56:00,